Time;durP1;ratioP1;P1;durP2;ratioP2;P2;SDS_P1;SDS_P2;PMS_P1;PMS_P2;Temp;Humidity;BMP_temperature;BMP_pressure;BME280_temperature;BME280_humidity;BME280_pressure;Samples;Min_cycle;Max_cycle;Signal;HPM_P1;HPM_P2
2022/03/27 00:02:23;;;;;;;24.67;6.43;;;6.30;99.90;;;;;;5050351;28;20140;-75
2022/03/27 00:04:49;;;;;;;8.10;4.18;;;6.30;99.90;;;;;;5047454;28;20026;-76
2022/03/27 00:07:15;;;;;;;15.95;4.28;;;6.30;99.90;;;;;;5065282;28;20021;-74
2022/03/27 00:09:41;;;;;;;8.40;3.28;;;6.20;99.90;;;;;;5065386;28;20607;-75
2022/03/27 00:12:07;;;;;;;7.90;3.28;;;6.40;99.90;;;;;;5065291;28;20033;-75
2022/03/27 00:14:33;;;;;;;12.77;4.25;;;6.30;99.90;;;;;;5064672;28;20025;-74
2022/03/27 00:16:58;;;;;;;10.10;3.83;;;6.30;99.90;;;;;;5047126;28;20024;-75
2022/03/27 00:19:24;;;;;;;9.15;3.53;;;6.30;99.90;;;;;;5063834;28;20059;-76
2022/03/27 00:21:50;;;;;;;13.07;3.22;;;6.40;99.90;;;;;;5064553;28;20028;-74
2022/03/27 00:24:16;;;;;;;6.72;3.03;;;6.50;99.90;;;;;;5063904;28;20025;-78
2022/03/27 00:26:41;;;;;;;9.13;3.38;;;6.50;99.90;;;;;;5063893;28;20079;-76
2022/03/27 00:29:07;;;;;;;6.18;3.05;;;6.60;99.90;;;;;;5082652;28;20017;-75
2022/03/27 00:31:37;;;;;;;7.03;3.08;;;6.60;99.90;;;;;;5084889;28;20040;-75
2022/03/27 00:34:06;;;;;;;11.90;3.20;;;6.60;99.90;;;;;;5084797;28;20032;-76
2022/03/27 00:36:32;;;;;;;13.00;3.90;;;6.60;99.90;;;;;;5085050;28;20043;-76
2022/03/27 00:38:58;;;;;;;13.40;4.32;;;6.70;99.90;;;;;;5085012;28;20028;-76
2022/03/27 00:41:24;;;;;;;8.15;3.05;;;6.70;99.90;;;;;;5084208;28;20028;-74
2022/03/27 00:43:58;;;;;;;11.70;3.13;;;6.80;99.90;;;;;;5087050;28;20027;-75
2022/03/27 00:46:23;;;;;;;5.40;2.97;;;6.70;99.90;;;;;;5105222;28;20024;-76
2022/03/27 00:48:49;;;;;;;9.00;3.15;;;6.80;99.90;;;;;;5104584;28;20044;-77
2022/03/27 00:51:15;;;;;;;8.40;3.90;;;6.80;99.90;;;;;;5105112;28;20070;-76
2022/03/27 00:53:42;;;;;;;11.05;3.85;;;6.80;99.90;;;;;;5087563;28;20028;-76
2022/03/27 00:56:07;;;;;;;10.77;3.75;;;6.80;99.90;;;;;;5066622;28;20055;-77
2022/03/27 00:58:33;;;;;;;10.55;4.65;;;6.80;99.90;;;;;;5085138;28;20032;-76
2022/03/27 01:01:01;;;;;;;8.57;3.00;;;6.80;99.90;;;;;;5084675;28;20044;-76
2022/03/27 01:03:27;;;;;;;11.73;3.28;;;6.70;99.90;;;;;;5067231;28;20028;-76
2022/03/27 01:05:58;;;;;;;19.95;4.07;;;6.70;99.90;;;;;;5070669;28;20071;-76
2022/03/27 01:11:27;;;;;;;10.27;3.25;;;6.70;99.90;;;;;;5089082;28;20071;-77
2022/03/27 01:13:55;;;;;;;12.43;4.05;;;6.80;99.90;;;;;;5088633;28;20035;-76
2022/03/27 01:16:46;;;;;;;9.27;4.03;;;6.80;99.90;;;;;;5070252;28;20029;-76
2022/03/27 01:19:14;;;;;;;13.70;3.53;;;6.80;99.90;;;;;;5088876;28;20024;-75
2022/03/27 01:21:43;;;;;;;12.63;3.90;;;6.80;99.90;;;;;;5088621;28;20473;-75
2022/03/27 01:24:09;;;;;;;15.77;4.20;;;6.80;99.90;;;;;;5070056;28;20024;-76
2022/03/27 01:26:37;;;;;;;17.73;3.45;;;6.80;99.90;;;;;;5070383;28;20040;-76
2022/03/27 01:29:03;;;;;;;25.80;4.30;;;6.80;99.90;;;;;;5088056;28;20036;-77
2022/03/27 01:31:29;;;;;;;14.48;4.32;;;6.80;99.90;;;;;;5088076;28;20032;-75
2022/03/27 01:33:55;;;;;;;5.47;3.05;;;6.80;99.90;;;;;;5088277;28;20032;-77
2022/03/27 01:36:26;;;;;;;19.33;3.88;;;6.90;99.90;;;;;;5069794;28;20024;-77
2022/03/27 01:38:53;;;;;;;7.65;4.38;;;6.90;99.90;;;;;;5088477;28;20059;-77
2022/03/27 01:41:19;;;;;;;32.67;4.65;;;6.90;99.90;;;;;;5088237;28;20028;-77
2022/03/27 01:43:47;;;;;;;23.27;4.53;;;6.90;99.90;;;;;;5069588;28;20476;-77
2022/03/27 01:46:13;;;;;;;23.48;4.22;;;6.90;99.90;;;;;;5088339;28;20376;-78
2022/03/27 01:48:38;;;;;;;12.80;4.03;;;6.90;99.90;;;;;;5087815;28;20044;-75
2022/03/27 01:51:05;;;;;;;14.13;3.78;;;6.90;99.90;;;;;;5069453;28;20047;-76
2022/03/27 01:53:31;;;;;;;10.73;4.03;;;6.90;99.90;;;;;;5087921;28;20024;-76
2022/03/27 01:55:57;;;;;;;12.85;3.92;;;6.90;99.90;;;;;;5087874;28;20054;-74
2022/03/27 01:58:22;;;;;;;25.92;4.72;;;6.90;99.90;;;;;;5069452;28;20025;-77
2022/03/27 02:00:48;;;;;;;29.15;4.93;;;6.90;99.90;;;;;;5087843;28;20108;-76
2022/03/27 02:03:14;;;;;;;16.63;4.18;;;6.90;99.90;;;;;;5069490;28;20029;-76
2022/03/27 02:05:40;;;;;;;15.05;4.95;;;6.90;99.90;;;;;;5087706;28;20096;-78
2022/03/27 02:08:06;;;;;;;16.13;5.55;;;7.00;99.90;;;;;;5069443;28;20380;-76
2022/03/27 02:10:31;;;;;;;17.15;4.65;;;6.90;99.90;;;;;;5087224;28;20099;-77
2022/03/27 02:13:11;;;;;;;21.05;4.57;;;6.90;99.90;;;;;;5087473;28;20024;-77
2022/03/27 02:15:37;;;;;;;31.75;5.82;;;6.90;99.90;;;;;;5087501;28;20043;-77
2022/03/27 02:18:04;;;;;;;18.52;4.55;;;6.90;99.90;;;;;;5086864;28;20820;-76
2022/03/27 02:20:29;;;;;;;15.93;4.65;;;6.90;99.90;;;;;;5069367;28;20024;-76
2022/03/27 02:22:55;;;;;;;21.08;5.15;;;7.00;99.90;;;;;;5087332;28;20055;-76
2022/03/27 02:25:21;;;;;;;14.93;5.18;;;6.90;99.90;;;;;;5086995;28;20054;-77
2022/03/27 02:27:47;;;;;;;18.83;5.60;;;7.00;99.90;;;;;;5087216;28;20047;-77
2022/03/27 02:30:15;;;;;;;27.30;7.07;;;7.00;99.90;;;;;;5087451;28;20025;-76
2022/03/27 02:32:41;;;;;;;18.52;6.45;;;6.90;99.90;;;;;;5086833;28;20033;-77
2022/03/27 02:35:07;;;;;;;19.00;4.57;;;6.90;99.90;;;;;;5087281;28;20025;-77
2022/03/27 02:37:32;;;;;;;24.95;5.88;;;7.00;99.90;;;;;;5086924;28;20031;-77
2022/03/27 02:39:58;;;;;;;15.30;5.53;;;7.00;99.90;;;;;;5069072;28;20024;-77
2022/03/27 02:42:24;;;;;;;19.73;6.30;;;6.90;99.90;;;;;;5085967;28;20074;-77
2022/03/27 02:44:49;;;;;;;19.20;5.43;;;6.90;99.90;;;;;;5086818;28;20032;-76
2022/03/27 02:47:16;;;;;;;21.25;6.25;;;6.90;99.90;;;;;;5086497;28;20075;-77
2022/03/27 02:49:41;;;;;;;25.63;4.80;;;6.90;99.90;;;;;;5087032;28;20028;-77
2022/03/27 02:52:07;;;;;;;32.42;6.88;;;6.90;99.90;;;;;;5086314;28;20894;-78
2022/03/27 02:54:32;;;;;;;26.27;6.63;;;6.80;99.90;;;;;;5085476;28;20119;-78
2022/03/27 02:56:58;;;;;;;17.67;5.53;;;6.80;99.90;;;;;;5068673;28;20027;-78
2022/03/27 02:59:25;;;;;;;14.00;5.47;;;6.70;99.90;;;;;;5068250;28;20029;-77
2022/03/27 03:01:57;;;;;;;26.27;6.28;;;6.70;99.90;;;;;;5086621;28;20024;-76
2022/03/27 03:04:23;;;;;;;24.10;6.90;;;6.70;99.90;;;;;;5086465;28;20025;-76
2022/03/27 03:06:49;;;;;;;28.67;7.10;;;6.70;99.90;;;;;;5086310;28;20084;-76
2022/03/27 03:09:15;;;;;;;24.75;6.70;;;6.70;99.90;;;;;;5085346;28;20043;-76
2022/03/27 03:11:41;;;;;;;15.07;4.78;;;6.70;99.90;;;;;;5086398;28;20488;-76
2022/03/27 03:14:07;;;;;;;26.40;7.05;;;6.70;99.90;;;;;;5086113;28;20025;-76
2022/03/27 03:16:33;;;;;;;16.48;6.50;;;6.70;99.90;;;;;;5086321;28;20056;-76
2022/03/27 03:18:59;;;;;;;35.42;8.48;;;6.70;99.90;;;;;;5066033;28;20028;-76
2022/03/27 03:21:25;;;;;;;17.08;5.35;;;6.70;99.90;;;;;;5085936;28;20444;-76
2022/03/27 03:23:51;;;;;;;35.60;7.93;;;6.70;99.90;;;;;;5068055;28;20021;-75
2022/03/27 03:26:17;;;;;;;19.73;5.90;;;6.80;99.90;;;;;;5085115;28;20032;-76
2022/03/27 03:28:43;;;;;;;29.65;7.07;;;6.80;99.90;;;;;;5086192;28;20027;-77
2022/03/27 03:31:08;;;;;;;27.70;7.20;;;6.90;99.90;;;;;;5067802;28;20064;-75
2022/03/27 03:33:34;;;;;;;42.05;9.30;;;6.90;99.90;;;;;;5085694;28;20021;-76
2022/03/27 03:35:59;;;;;;;28.98;7.43;;;6.90;99.90;;;;;;5085745;28;20114;-77
2022/03/27 03:38:25;;;;;;;37.38;7.80;;;6.90;99.90;;;;;;5067836;28;20044;-75
2022/03/27 03:40:57;;;;;;;16.00;6.15;;;7.00;99.90;;;;;;5067813;28;20028;-76
2022/03/27 03:43:22;;;;;;;16.35;6.95;;;6.90;99.90;;;;;;5085666;28;20032;-75
2022/03/27 03:45:49;;;;;;;21.25;7.85;;;6.90;99.90;;;;;;5085840;28;20075;-75
2022/03/27 03:48:14;;;;;;;25.33;7.57;;;6.90;99.90;;;;;;5063760;28;20112;-75
2022/03/27 03:50:40;;;;;;;22.88;9.13;;;6.90;99.90;;;;;;5046780;28;20029;-76
2022/03/27 03:53:06;;;;;;;36.80;7.45;;;6.90;99.90;;;;;;5064854;28;20053;-75
2022/03/27 03:55:33;;;;;;;31.70;7.22;;;6.90;99.90;;;;;;5064399;28;20036;-77
2022/03/27 03:57:58;;;;;;;36.67;8.98;;;6.90;99.90;;;;;;5064086;28;20029;-76
2022/03/27 04:00:31;;;;;;;47.13;8.57;;;6.90;99.90;;;;;;5064230;28;20051;-77
2022/03/27 04:02:57;;;;;;;28.98;7.78;;;6.90;99.90;;;;;;5065010;28;20021;-76
2022/03/27 04:05:23;;;;;;;30.73;8.00;;;6.90;99.90;;;;;;5065552;28;20028;-75
2022/03/27 04:07:49;;;;;;;27.67;8.60;;;6.90;99.90;;;;;;5065369;28;20070;-75
2022/03/27 04:10:17;;;;;;;30.13;7.45;;;6.90;99.90;;;;;;5065159;28;20024;-76
2022/03/27 04:12:43;;;;;;;27.55;7.82;;;6.90;99.90;;;;;;5047395;28;20059;-76
2022/03/27 04:15:09;;;;;;;18.65;6.93;;;6.90;99.90;;;;;;5065069;28;20067;-76
2022/03/27 04:17:42;;;;;;;36.05;9.20;;;6.80;99.90;;;;;;5047126;28;20017;-76
2022/03/27 04:20:08;;;;;;;20.33;7.40;;;6.80;99.90;;;;;;5074568;28;20029;-77
2022/03/27 04:22:34;;;;;;;36.58;9.13;;;6.70;99.90;;;;;;5071120;28;20035;-77
2022/03/27 04:24:59;;;;;;;37.40;9.10;;;6.60;99.90;;;;;;5085028;28;20100;-74
2022/03/27 04:27:25;;;;;;;39.78;9.73;;;6.70;99.90;;;;;;5085081;28;20092;-76
2022/03/27 04:29:51;;;;;;;39.30;8.00;;;6.60;99.90;;;;;;5084817;28;20029;-76
2022/03/27 04:32:17;;;;;;;23.95;7.40;;;6.60;99.90;;;;;;5084773;28;20039;-78
2022/03/27 04:34:43;;;;;;;35.88;8.30;;;6.60;99.90;;;;;;5067050;28;20028;-75
2022/03/27 04:37:15;;;;;;;35.35;8.20;;;6.60;99.90;;;;;;5084679;28;20147;-76
2022/03/27 04:39:40;;;;;;;41.35;8.52;;;6.60;99.90;;;;;;5088110;28;20046;-75
2022/03/27 04:42:06;;;;;;;26.67;8.18;;;6.60;99.90;;;;;;5086584;28;20028;-74
2022/03/27 04:44:32;;;;;;;26.15;7.75;;;6.60;99.90;;;;;;5105117;28;20070;-76
2022/03/27 04:46:57;;;;;;;39.00;10.38;;;6.60;99.90;;;;;;5088242;28;20416;-75
2022/03/27 04:49:23;;;;;;;27.73;8.93;;;6.60;99.90;;;;;;5066471;28;20025;-75
2022/03/27 04:51:49;;;;;;;24.30;8.35;;;6.50;99.90;;;;;;5084741;28;20098;-76
2022/03/27 04:54:14;;;;;;;31.92;10.20;;;6.50;99.90;;;;;;5085034;28;20028;-77
2022/03/27 04:56:40;;;;;;;29.98;8.43;;;6.50;99.90;;;;;;5084909;28;20025;-75
2022/03/27 04:59:05;;;;;;;43.00;9.77;;;6.50;99.90;;;;;;5084920;28;20036;-76
2022/03/27 05:01:31;;;;;;;29.25;8.40;;;6.50;99.90;;;;;;5066784;28;20393;-76
2022/03/27 05:03:57;;;;;;;27.85;8.70;;;6.60;99.90;;;;;;5084328;28;20021;-77
2022/03/27 05:06:22;;;;;;;45.08;7.82;;;6.50;99.90;;;;;;5083832;28;20476;-78
2022/03/27 05:08:48;;;;;;;26.08;8.27;;;6.50;99.90;;;;;;5066827;28;20092;-75
2022/03/27 05:11:13;;;;;;;42.13;8.02;;;6.50;99.90;;;;;;5084412;28;20043;-76
2022/03/27 05:13:39;;;;;;;32.97;9.35;;;6.40;99.90;;;;;;5084724;28;20029;-75
2022/03/27 05:16:05;;;;;;;20.13;8.10;;;6.40;99.90;;;;;;5066741;28;20036;-77
2022/03/27 05:18:30;;;;;;;37.15;10.82;;;6.40;99.90;;;;;;5082983;28;20053;-78
2022/03/27 05:20:56;;;;;;;35.22;8.25;;;6.40;99.90;;;;;;5066612;28;20116;-76
2022/03/27 05:23:21;;;;;;;38.17;10.13;;;6.30;99.90;;;;;;5066605;28;20024;-77
2022/03/27 05:25:49;;;;;;;31.67;9.00;;;6.30;99.90;;;;;;5066402;28;20127;-77
2022/03/27 05:28:15;;;;;;;24.23;8.65;;;6.30;99.90;;;;;;5083155;28;20032;-77
2022/03/27 05:30:41;;;;;;;32.97;8.90;;;6.40;99.90;;;;;;5084761;28;20028;-75
2022/03/27 05:33:07;;;;;;;37.38;8.77;;;6.50;99.90;;;;;;5084068;28;20025;-75
2022/03/27 05:35:33;;;;;;;28.25;8.60;;;6.50;99.90;;;;;;5078786;28;20036;-75
2022/03/27 05:37:59;;;;;;;40.88;9.93;;;6.50;99.90;;;;;;5064462;28;20025;-77
2022/03/27 05:40:25;;;;;;;20.17;7.90;;;6.50;99.90;;;;;;5046057;28;20021;-78
2022/03/27 05:42:53;;;;;;;27.92;8.70;;;6.60;99.90;;;;;;5064307;28;20130;-77
2022/03/27 05:45:19;;;;;;;31.67;10.05;;;6.60;99.90;;;;;;5057291;28;20036;-75
2022/03/27 05:47:45;;;;;;;29.95;8.13;;;6.60;99.90;;;;;;5045546;28;20057;-71
2022/03/27 05:50:13;;;;;;;54.28;8.75;;;6.60;99.90;;;;;;5066171;28;20052;-74
2022/03/27 05:52:41;;;;;;;34.58;10.65;;;6.60;99.90;;;;;;5067930;28;20037;-76
2022/03/27 05:55:07;;;;;;;27.25;8.30;;;6.70;99.90;;;;;;5076393;28;20491;-74
2022/03/27 05:57:33;;;;;;;28.00;8.98;;;6.70;99.90;;;;;;5086818;28;20063;-74
2022/03/27 05:59:58;;;;;;;28.42;7.68;;;6.70;99.90;;;;;;5076182;28;20037;-75
2022/03/27 06:02:24;;;;;;;35.45;9.10;;;6.70;99.90;;;;;;5080068;28;20068;-76
2022/03/27 06:04:51;;;;;;;31.20;8.75;;;6.60;99.90;;;;;;5085563;28;20059;-75
2022/03/27 06:07:16;;;;;;;22.98;7.57;;;6.60;99.90;;;;;;5085957;28;20032;-75
2022/03/27 06:09:42;;;;;;;26.00;8.13;;;6.60;99.90;;;;;;5087458;28;20025;-74
2022/03/27 06:12:08;;;;;;;32.22;9.48;;;6.60;99.90;;;;;;5087303;28;20126;-73
2022/03/27 06:14:34;;;;;;;22.40;6.88;;;6.60;99.90;;;;;;5087375;28;20499;-73
2022/03/27 06:17:00;;;;;;;23.85;8.45;;;6.70;99.90;;;;;;5084317;28;20568;-75
2022/03/27 06:19:26;;;;;;;43.28;10.10;;;6.80;99.90;;;;;;5079029;28;20116;-76
2022/03/27 06:21:52;;;;;;;26.23;7.55;;;6.80;99.90;;;;;;5080547;28;20020;-74
2022/03/27 06:24:18;;;;;;;32.15;8.20;;;6.80;99.90;;;;;;5068945;28;20036;-76
2022/03/27 06:26:44;;;;;;;29.83;8.07;;;6.90;99.90;;;;;;5088008;28;20519;-73
2022/03/27 06:29:10;;;;;;;33.75;7.68;;;7.00;99.90;;;;;;5085641;28;20032;-76
2022/03/27 06:31:38;;;;;;;31.92;8.73;;;7.00;99.90;;;;;;5087270;28;20048;-74
2022/03/27 06:34:05;;;;;;;22.75;7.90;;;7.00;99.90;;;;;;5087149;28;20028;-75
2022/03/27 06:36:31;;;;;;;20.73;7.00;;;7.00;99.90;;;;;;5068899;28;20024;-74
2022/03/27 06:38:57;;;;;;;15.20;5.85;;;7.00;99.90;;;;;;5084509;28;20039;-75
2022/03/27 06:41:22;;;;;;;23.98;7.30;;;7.00;99.90;;;;;;5078698;28;20040;-75
2022/03/27 06:43:48;;;;;;;29.30;7.18;;;7.00;99.90;;;;;;5084779;28;20035;-75
2022/03/27 06:46:17;;;;;;;29.38;8.38;;;6.90;99.90;;;;;;5083825;28;21043;-75
2022/03/27 06:48:49;;;;;;;23.13;7.45;;;6.80;99.90;;;;;;5067137;28;20049;-75
2022/03/27 06:51:16;;;;;;;33.08;8.10;;;6.90;99.90;;;;;;5070187;28;20037;-75
2022/03/27 06:53:46;;;;;;;25.58;6.85;;;6.90;99.90;;;;;;5072629;28;20045;-74
2022/03/27 06:56:12;;;;;;;39.25;6.95;;;6.90;99.90;;;;;;5073095;28;20420;-74
2022/03/27 06:58:38;;;;;;;21.80;6.55;;;7.00;99.90;;;;;;5070572;28;20044;-74
2022/03/27 07:03:49;;;;;;;35.13;8.30;;;7.10;99.90;;;;;;5085456;28;20054;-74
2022/03/27 07:06:19;;;;;;;32.65;7.10;;;7.10;99.90;;;;;;5085138;28;20020;-76
2022/03/27 07:08:44;;;;;;;44.90;9.07;;;7.10;99.90;;;;;;5081443;28;20125;-74
2022/03/27 07:11:10;;;;;;;24.98;6.68;;;7.10;99.90;;;;;;5083594;28;20484;-75
2022/03/27 07:13:36;;;;;;;13.13;6.82;;;7.20;99.90;;;;;;5069363;28;20036;-74
2022/03/27 07:16:02;;;;;;;31.55;8.23;;;7.10;99.90;;;;;;5067103;28;20057;-74
2022/03/27 07:18:40;;;;;;;28.75;8.80;;;7.10;99.90;;;;;;5064769;28;20021;-75
2022/03/27 07:21:06;;;;;;;35.63;7.03;;;7.10;99.90;;;;;;5063913;28;20029;-75
2022/03/27 07:23:31;;;;;;;26.70;7.95;;;7.20;99.90;;;;;;5082530;28;20050;-73
2022/03/27 07:25:57;;;;;;;25.40;8.27;;;7.20;99.90;;;;;;5067790;28;20032;-74
2022/03/27 07:28:25;;;;;;;24.95;7.50;;;7.30;99.90;;;;;;5064833;28;20614;-74
2022/03/27 07:30:50;;;;;;;19.15;6.25;;;7.30;99.90;;;;;;5066005;28;20021;-74
2022/03/27 07:33:17;;;;;;;37.30;9.38;;;7.30;99.90;;;;;;5048033;28;20056;-74
2022/03/27 07:35:44;;;;;;;27.95;7.28;;;7.30;99.90;;;;;;5085031;28;20114;-74
2022/03/27 07:38:10;;;;;;;56.38;9.18;;;7.40;99.90;;;;;;5085958;28;20028;-75
2022/03/27 07:40:36;;;;;;;17.10;6.47;;;7.30;99.90;;;;;;5085684;28;20028;-75
2022/03/27 07:43:02;;;;;;;33.03;8.57;;;7.20;99.90;;;;;;5086004;28;20029;-73
2022/03/27 07:45:31;;;;;;;27.38;8.73;;;7.30;99.90;;;;;;5067685;28;20020;-74
2022/03/27 07:47:58;;;;;;;30.50;10.60;;;7.20;99.90;;;;;;5085215;28;20044;-73
2022/03/27 07:50:25;;;;;;;31.35;8.32;;;7.20;99.90;;;;;;5064200;28;20028;-73
2022/03/27 07:52:51;;;;;;;18.77;7.57;;;7.30;99.90;;;;;;5077843;28;20044;-73
2022/03/27 07:55:18;;;;;;;28.08;7.72;;;7.30;99.90;;;;;;5073591;28;20075;-73
2022/03/27 07:57:44;;;;;;;19.05;7.93;;;7.40;99.90;;;;;;5075947;28;20059;-75
2022/03/27 08:00:12;;;;;;;36.05;8.48;;;7.40;99.90;;;;;;5075645;28;20029;-73
2022/03/27 08:02:46;;;;;;;35.25;11.02;;;7.50;99.90;;;;;;5080804;28;20029;-74
2022/03/27 08:05:14;;;;;;;37.28;11.90;;;7.60;99.90;;;;;;5084003;28;20052;-73
2022/03/27 08:07:40;;;;;;;44.58;13.35;;;7.60;99.90;;;;;;5084382;28;20038;-73
2022/03/27 08:10:07;;;;;;;47.25;13.68;;;7.60;99.90;;;;;;5075295;28;20024;-73
2022/03/27 08:12:36;;;;;;;40.92;13.75;;;7.70;99.90;;;;;;5051395;28;20064;-72
2022/03/27 08:15:09;;;;;;;35.17;13.52;;;7.70;99.90;;;;;;5052766;28;20032;-74
2022/03/27 08:17:35;;;;;;;43.53;12.98;;;7.80;99.90;;;;;;5085219;28;20040;-73
2022/03/27 08:20:02;;;;;;;50.55;13.90;;;7.80;99.90;;;;;;5083985;28;20035;-74
2022/03/27 08:22:27;;;;;;;38.42;11.63;;;7.90;99.90;;;;;;5065571;28;20031;-74
2022/03/27 08:24:53;;;;;;;43.70;12.95;;;7.90;99.90;;;;;;5084869;28;20099;-74
2022/03/27 08:27:20;;;;;;;37.28;12.65;;;8.00;99.90;;;;;;5084945;28;20031;-74
2022/03/27 08:29:46;;;;;;;33.63;11.70;;;8.00;99.90;;;;;;5084453;28;20074;-72
2022/03/27 08:32:14;;;;;;;49.60;11.73;;;8.10;99.90;;;;;;5080443;28;20043;-73
2022/03/27 08:34:59;;;;;;;44.25;10.02;;;8.10;99.90;;;;;;5083481;28;20024;-75
2022/03/27 08:37:26;;;;;;;32.90;9.38;;;8.10;99.90;;;;;;5081913;28;20028;-73
2022/03/27 08:39:53;;;;;;;27.17;10.20;;;8.00;99.90;;;;;;5068051;28;20056;-74
2022/03/27 08:42:27;;;;;;;36.28;10.63;;;7.90;99.90;;;;;;5076856;28;20043;-75
2022/03/27 08:44:54;;;;;;;31.50;9.73;;;8.00;99.90;;;;;;5082993;28;20107;-74
2022/03/27 08:47:28;;;;;;;39.47;8.90;;;8.00;99.90;;;;;;5073597;28;20040;-73
2022/03/27 08:50:02;;;;;;;27.60;8.30;;;8.10;99.90;;;;;;5075735;28;20047;-73
2022/03/27 08:52:40;;;;;;;;;;;8.10;99.90;;;;;;5084954;28;20124;-74
2022/03/27 08:55:08;;;;;;;34.10;8.82;;;8.20;99.90;;;;;;5064450;28;19983;-74
2022/03/27 08:57:56;;;;;;;29.80;7.65;;;8.40;99.90;;;;;;5064634;28;20112;-75
2022/03/27 09:00:28;;;;;;;18.17;7.18;;;8.40;99.90;;;;;;5064826;28;20029;-74
2022/03/27 09:02:56;;;;;;;33.50;7.45;;;8.50;99.90;;;;;;5068441;28;20025;-74
2022/03/27 09:05:23;;;;;;;36.28;9.20;;;8.60;99.90;;;;;;5084361;28;20026;-74
2022/03/27 09:07:52;;;;;;;26.95;7.45;;;8.60;99.90;;;;;;5084850;28;20020;-74
2022/03/27 09:10:18;;;;;;;35.92;7.72;;;8.70;99.90;;;;;;5083827;28;20496;-73
2022/03/27 09:12:46;;;;;;;28.83;7.47;;;8.80;99.90;;;;;;5083379;28;20037;-74
2022/03/27 09:15:21;;;;;;;23.02;7.30;;;8.80;99.90;;;;;;5061296;28;20116;-74
2022/03/27 09:17:59;;;;;;;26.70;7.20;;;8.90;99.90;;;;;;5081587;28;20031;-75
2022/03/27 09:20:38;;;;;;;15.70;5.32;;;8.90;99.90;;;;;;5082818;28;20353;-75
2022/03/27 09:23:28;;;;;;;32.28;7.85;;;8.80;99.90;;;;;;5064723;28;20032;-75
2022/03/27 09:25:59;;;;;;;24.08;6.72;;;8.70;99.90;;;;;;5086080;28;20468;-75
2022/03/27 09:28:30;;;;;;;24.08;6.65;;;8.70;99.90;;;;;;5067438;28;20048;-75
2022/03/27 09:30:57;;;;;;;27.50;6.88;;;8.70;99.90;;;;;;5067045;28;20033;-75
2022/03/27 09:33:46;;;;;;;20.27;6.30;;;8.80;99.90;;;;;;5067558;28;20033;-74
2022/03/27 09:36:17;;;;;;;25.67;6.82;;;8.80;99.90;;;;;;5067877;28;20017;-74
2022/03/27 09:39:13;;;;;;;21.83;7.90;;;8.90;99.90;;;;;;5049420;28;20033;-74
2022/03/27 09:41:53;;;;;;;17.55;7.10;;;9.00;99.90;;;;;;5058257;28;20057;-75
2022/03/27 09:44:39;;;;;;;23.30;7.65;;;9.10;99.90;;;;;;5086078;28;20074;-75
2022/03/27 09:47:05;;;;;;;23.05;7.38;;;9.20;99.90;;;;;;5084840;28;20059;-74
2022/03/27 09:49:31;;;;;;;18.88;6.70;;;9.40;99.90;;;;;;5084939;28;20096;-73
2022/03/27 09:52:10;;;;;;;14.52;6.25;;;9.50;99.90;;;;;;5085876;28;20040;-76
2022/03/27 09:55:09;;;;;;;16.10;6.03;;;9.50;99.90;;;;;;5087251;28;20044;-75
2022/03/27 09:57:37;;;;;;;32.78;6.35;;;9.60;99.90;;;;;;5072106;28;20068;-74
2022/03/27 10:00:13;;;;;;;15.43;4.70;;;9.70;99.90;;;;;;5084195;28;21026;-73
2022/03/27 10:02:43;;;;;;;14.50;6.22;;;9.90;99.90;;;;;;5083959;28;20025;-75
2022/03/27 10:05:13;;;;;;;21.25;5.88;;;9.90;99.90;;;;;;5085551;28;20070;-74
2022/03/27 10:07:48;;;;;;;17.27;6.03;;;10.00;99.90;;;;;;5067495;28;20066;-75
2022/03/27 10:10:16;;;;;;;22.90;6.00;;;10.10;99.90;;;;;;5077807;28;20028;-75
2022/03/27 10:12:45;;;;;;;17.67;5.18;;;10.10;99.90;;;;;;5077375;28;20033;-74
2022/03/27 10:15:26;;;;;;;21.17;7.18;;;10.20;99.90;;;;;;5086808;28;20025;-74
2022/03/27 10:17:55;;;;;;;19.58;5.53;;;10.20;99.90;;;;;;5081990;28;20095;-74
2022/03/27 10:20:22;;;;;;;36.90;7.15;;;10.40;99.90;;;;;;5064517;28;20024;-74
2022/03/27 10:22:52;;;;;;;18.75;6.35;;;10.40;99.90;;;;;;5085629;28;20507;-74
2022/03/27 10:25:19;;;;;;;14.82;6.47;;;10.60;99.90;;;;;;5086807;28;20029;-74
2022/03/27 10:27:46;;;;;;;19.08;7.10;;;10.80;99.90;;;;;;5086314;28;20080;-75
2022/03/27 10:30:16;;;;;;;25.67;6.72;;;10.90;99.90;;;;;;5063168;28;20036;-75
2022/03/27 10:32:43;;;;;;;18.80;6.18;;;11.00;99.90;;;;;;5057324;28;20057;-74
2022/03/27 10:35:15;;;;;;;17.20;6.80;;;11.20;99.90;;;;;;5066655;28;20035;-73
2022/03/27 10:37:59;;;;;;;23.88;7.18;;;11.50;99.90;;;;;;5075225;28;20033;-74
2022/03/27 10:40:54;;;;;;;27.65;7.30;;;11.70;99.90;;;;;;5086012;28;20047;-74
2022/03/27 10:43:50;;;;;;;20.75;6.68;;;11.90;99.90;;;;;;5086415;28;20411;-74
2022/03/27 10:46:25;;;;;;;21.17;7.22;;;12.00;99.90;;;;;;5067935;28;20024;-75
2022/03/27 10:48:53;;;;;;;27.25;7.05;;;12.20;99.90;;;;;;5085559;28;20179;-74
2022/03/27 10:51:24;;;;;;;32.22;7.38;;;12.30;99.90;;;;;;5085917;28;20515;-76
2022/03/27 10:54:20;;;;;;;26.05;7.00;;;12.40;99.90;;;;;;5084946;28;20156;-74
2022/03/27 10:57:08;;;;;;;25.55;6.75;;;12.40;99.90;;;;;;5069165;28;20090;-75
2022/03/27 10:59:43;;;;;;;31.63;7.57;;;12.50;99.90;;;;;;5085608;28;20051;-75
2022/03/27 11:02:09;;;;;;;19.20;6.85;;;13.00;99.90;;;;;;5072991;28;20029;-74
2022/03/27 11:04:34;;;;;;;23.35;7.53;;;13.60;99.90;;;;;;5082720;28;20055;-75
2022/03/27 11:07:16;;;;;;;33.78;8.10;;;14.20;99.90;;;;;;5085997;28;20024;-74
2022/03/27 11:09:45;;;;;;;18.30;6.72;;;14.60;99.90;;;;;;5086215;28;20499;-75
2022/03/27 11:12:24;;;;;;;18.75;5.68;;;15.00;99.90;;;;;;5085837;28;20087;-75
2022/03/27 11:14:52;;;;;;;22.13;6.00;;;15.30;99.90;;;;;;5084980;28;20020;-76
2022/03/27 11:17:43;;;;;;;21.02;6.15;;;15.60;99.90;;;;;;5085910;28;20032;-75
2022/03/27 11:20:23;;;;;;;16.10;6.25;;;15.50;99.90;;;;;;5085955;28;20059;-76
2022/03/27 11:22:53;;;;;;;22.38;5.88;;;15.30;99.90;;;;;;5085891;28;20012;-76
2022/03/27 11:25:37;;;;;;;20.77;6.13;;;15.40;99.90;;;;;;5085092;28;20073;-75
2022/03/27 11:28:29;;;;;;;12.80;5.00;;;15.50;99.90;;;;;;5069082;28;20132;-75
2022/03/27 11:30:55;;;;;;;27.80;7.00;;;15.80;99.90;;;;;;5065767;28;20032;-74
2022/03/27 11:33:29;;;;;;;21.13;7.38;;;16.00;99.90;;;;;;5047647;28;20033;-75
2022/03/27 11:36:00;;;;;;;;;;;16.10;99.90;;;;;;5065999;28;20081;-74
2022/03/27 11:38:31;;;;;;;29.40;7.90;;;16.40;99.90;;;;;;5065219;28;19905;-74
2022/03/27 11:40:57;;;;;;;25.85;7.03;;;16.60;99.90;;;;;;5066036;28;20056;-74
2022/03/27 11:43:32;;;;;;;16.25;5.93;;;16.70;99.90;;;;;;5069790;28;20053;-74
2022/03/27 11:45:59;;;;;;;20.73;6.53;;;16.90;99.90;;;;;;5063646;28;20029;-73
2022/03/27 11:48:25;;;;;;;14.73;6.55;;;17.00;99.90;;;;;;5055964;28;20103;-73
2022/03/27 11:50:54;;;;;;;17.13;5.60;;;17.20;99.90;;;;;;5063847;28;20104;-74
2022/03/27 11:53:33;;;;;;;20.33;6.30;;;17.40;99.90;;;;;;5063497;28;20021;-73
2022/03/27 11:56:07;;;;;;;21.50;5.68;;;17.60;99.90;;;;;;5079688;28;20095;-74
2022/03/27 11:58:35;;;;;;;18.08;5.93;;;17.60;99.90;;;;;;5084163;28;20024;-76
2022/03/27 12:01:09;;;;;;;14.90;5.85;;;17.90;99.90;;;;;;5083652;28;20032;-74
2022/03/27 12:03:36;;;;;;;18.63;5.63;;;18.00;99.90;;;;;;5073323;28;20443;-75
2022/03/27 12:06:09;;;;;;;13.07;4.53;;;18.00;99.90;;;;;;5082960;28;20466;-76
2022/03/27 12:08:40;;;;;;;13.45;5.78;;;18.10;99.90;;;;;;5085337;28;20032;-75
2022/03/27 12:11:07;;;;;;;14.75;5.93;;;17.70;99.90;;;;;;5085154;28;20021;-74
2022/03/27 12:13:51;;;;;;;11.93;5.22;;;17.80;99.90;;;;;;5085315;28;20078;-74
2022/03/27 12:16:21;;;;;;;12.93;5.03;;;18.20;99.90;;;;;;5065013;28;20373;-75
2022/03/27 12:18:49;;;;;;;16.48;6.07;;;18.60;99.90;;;;;;5064697;28;20078;-76
2022/03/27 12:21:20;;;;;;;15.63;5.22;;;18.80;99.90;;;;;;5065253;28;20028;-75
2022/03/27 12:23:55;;;;;;;15.43;4.82;;;18.80;99.90;;;;;;5046817;28;20059;-75
2022/03/27 12:29:50;;;;;;;13.00;4.68;;;18.70;99.90;;;;;;5067646;28;20044;-75
2022/03/27 12:32:25;;;;;;;13.80;5.10;;;18.40;99.90;;;;;;5074734;28;20032;-74
2022/03/27 12:34:53;;;;;;;16.20;4.82;;;18.50;99.90;;;;;;5073088;28;20021;-75
2022/03/27 12:37:22;;;;;;;15.05;5.80;;;18.60;99.90;;;;;;5075525;28;20025;-76
2022/03/27 12:39:50;;;;;;;18.10;5.50;;;19.00;99.90;;;;;;5054290;28;20033;-75
2022/03/27 12:42:29;;;;;;;18.52;6.00;;;19.20;99.90;;;;;;5063189;28;20029;-75
2022/03/27 12:45:17;;;;;;;20.33;5.10;;;19.10;99.90;;;;;;5083451;28;20032;-77
2022/03/27 12:47:45;;;;;;;15.45;5.60;;;18.60;99.90;;;;;;5084027;28;20013;-74
2022/03/27 12:50:27;;;;;;;15.73;5.32;;;18.40;99.90;;;;;;5073241;28;20029;-76
2022/03/27 12:52:55;;;;;;;26.65;5.78;;;18.20;99.90;;;;;;5064659;28;20076;-75
2022/03/27 12:55:25;;;;;;;14.55;4.65;;;18.00;99.90;;;;;;5062837;28;20096;-75
2022/03/27 12:57:54;;;;;;;21.83;5.07;;;18.00;99.90;;;;;;5064703;28;20028;-76
2022/03/27 13:00:22;;;;;;;15.65;4.80;;;18.20;99.90;;;;;;5066045;28;20021;-75
2022/03/27 13:02:48;;;;;;;17.65;5.13;;;18.50;99.90;;;;;;5050129;28;20032;-75
2022/03/27 13:05:16;;;;;;;15.52;5.45;;;18.80;99.90;;;;;;5069396;28;20012;-75